Time;durP1;ratioP1;P1;durP2;ratioP2;P2;SDS_P1;SDS_P2;PMS_P1;PMS_P2;Temp;Humidity;BMP_temperature;BMP_pressure;BME280_temperature;BME280_humidity;BME280_pressure;Samples;Min_cycle;Max_cycle;Signal;HPM_P1;HPM_P2
2022/04/11 00:02:17;;;;;;;3.80;1.20;;;;;;;;;;5072611;28;20470;-74
2022/04/11 00:04:43;;;;;;;4.07;1.13;;;;;;;;;;5054734;28;20036;-74
2022/04/11 00:07:09;;;;;;;2.97;1.10;;;;;;;;;;5050773;28;20392;-74
2022/04/11 00:09:35;;;;;;;3.33;1.13;;;;;;;;;;5052392;28;20123;-74
2022/04/11 00:12:01;;;;;;;3.30;1.20;;;;;;;;;;5052540;28;20062;-74
2022/04/11 00:14:28;;;;;;;3.70;1.23;;;;;;;;;;5040185;28;20026;-74
2022/04/11 00:16:54;;;;;;;3.30;1.35;;;;;;;;;;5032512;28;20032;-74
2022/04/11 00:19:20;;;;;;;5.13;1.30;;;;;;;;;;5034920;28;20025;-74
2022/04/11 00:21:46;;;;;;;4.55;1.85;;;;;;;;;;5052064;28;20028;-75
2022/04/11 00:24:12;;;;;;;3.97;1.17;;;;;;;;;;5052483;28;20055;-74
2022/04/11 00:26:38;;;;;;;5.15;1.23;;;;;;;;;;5051414;28;20029;-74
2022/04/11 00:29:04;;;;;;;2.08;1.10;;;;;;;;;;5052070;28;20075;-75
2022/04/11 00:31:30;;;;;;;4.97;1.23;;;;;;;;;;5052154;28;20386;-75
2022/04/11 00:33:56;;;;;;;4.72;1.30;;;;;;;;;;5050808;28;20525;-74
2022/04/11 00:36:22;;;;;;;3.25;1.20;;;;;;;;;;5052387;28;20367;-75
2022/04/11 00:38:48;;;;;;;2.50;1.10;;;;;;;;;;5050648;28;20031;-74
2022/04/11 00:41:14;;;;;;;2.78;1.30;;;;;;;;;;5047540;28;20033;-74
2022/04/11 00:43:41;;;;;;;4.22;0.95;;;;;;;;;;5032162;28;20036;-74
2022/04/11 00:46:08;;;;;;;5.70;1.30;;;;;;;;;;5032145;28;20445;-74
2022/04/11 00:48:34;;;;;;;3.83;1.38;;;;;;;;;;5032043;28;20025;-74
2022/04/11 00:51:03;;;;;;;4.00;1.42;;;;;;;;;;5031746;28;20034;-74
2022/04/11 00:53:30;;;;;;;6.22;2.50;;;;;;;;;;5031982;28;20538;-74
2022/04/11 00:55:57;;;;;;;4.15;1.30;;;;;;;;;;5031954;28;20036;-74
2022/04/11 00:58:23;;;;;;;3.55;1.38;;;;;;;;;;5031922;28;20113;-74
2022/04/11 01:00:49;;;;;;;7.43;1.35;;;;;;;;;;5031913;28;20041;-74
2022/04/11 01:03:15;;;;;;;4.80;1.52;;;;;;;;;;5030657;28;20379;-74
2022/04/11 01:05:42;;;;;;;2.80;1.30;;;;;;;;;;5031770;28;20040;-74
2022/04/11 01:08:10;;;;;;;6.20;1.60;;;;;;;;;;5047756;28;20059;-74
2022/04/11 01:10:36;;;;;;;5.88;1.95;;;;;;;;;;5051960;28;20039;-74
2022/04/11 01:13:02;;;;;;;3.78;1.38;;;;;;;;;;5051528;28;20021;-74
2022/04/11 01:15:28;;;;;;;6.35;1.60;;;;;;;;;;5051604;28;20360;-74
2022/04/11 01:17:54;;;;;;;6.15;1.98;;;;;;;;;;5051767;28;20025;-74
2022/04/11 01:20:21;;;;;;;4.80;1.75;;;;;;;;;;5062751;28;20418;-74
2022/04/11 01:22:47;;;;;;;3.75;1.48;;;;;;;;;;5071603;28;20037;-74
2022/04/11 01:25:14;;;;;;;7.30;1.85;;;;;;;;;;5071613;28;20111;-74
2022/04/11 01:27:41;;;;;;;4.80;1.75;;;;;;;;;;5071539;28;20067;-74
2022/04/11 01:30:08;;;;;;;6.43;1.85;;;;;;;;;;5071552;28;20088;-74
2022/04/11 01:32:35;;;;;;;3.90;1.60;;;;;;;;;;5071694;28;20032;-74
2022/04/11 01:35:01;;;;;;;6.38;1.88;;;;;;;;;;5071596;28;20017;-74
2022/04/11 01:37:27;;;;;;;4.20;1.75;;;;;;;;;;5071434;28;20033;-74
2022/04/11 01:39:53;;;;;;;5.38;2.17;;;;;;;;;;5075266;28;20035;-74
2022/04/11 01:42:19;;;;;;;6.50;1.70;;;;;;;;;;5075212;28;20020;-74
2022/04/11 01:44:46;;;;;;;3.40;1.48;;;;;;;;;;5075343;28;20081;-74
2022/04/11 01:47:12;;;;;;;3.78;1.90;;;;;;;;;;5075328;28;20020;-74
2022/04/11 01:49:38;;;;;;;5.10;1.65;;;;;;;;;;5075152;28;20522;-74
2022/04/11 01:52:05;;;;;;;2.75;1.60;;;;;;;;;;5075160;28;20186;-74
2022/04/11 01:54:31;;;;;;;6.45;1.90;;;;;;;;;;5075149;28;20024;-74
2022/04/11 01:56:57;;;;;;;5.53;1.60;;;;;;;;;;5075013;28;20029;-74
2022/04/11 01:59:23;;;;;;;5.80;1.88;;;;;;;;;;5075112;28;20021;-74
2022/04/11 02:01:49;;;;;;;4.63;1.90;;;;;;;;;;5075066;28;20399;-74
2022/04/11 02:04:15;;;;;;;3.83;2.10;;;;;;;;;;5074975;28;20124;-74
2022/04/11 02:06:41;;;;;;;6.75;1.85;;;;;;;;;;5074781;28;20090;-74
2022/04/11 02:09:07;;;;;;;5.47;1.75;;;;;;;;;;5074873;28;20436;-74
2022/04/11 02:11:33;;;;;;;6.47;2.33;;;;;;;;;;5074832;28;20099;-74
2022/04/11 02:14:00;;;;;;;6.45;1.95;;;;;;;;;;5074661;28;20033;-74
2022/04/11 02:16:26;;;;;;;9.05;1.80;;;;;;;;;;5074827;28;20168;-74
2022/04/11 02:18:52;;;;;;;6.15;2.10;;;;;;;;;;5074804;28;20021;-74
2022/04/11 02:21:18;;;;;;;4.38;2.10;;;;;;;;;;5074596;28;20417;-74
2022/04/11 02:23:46;;;;;;;6.53;2.05;;;;;;;;;;5074793;28;20378;-74
2022/04/11 02:26:12;;;;;;;3.92;2.33;;;;;;;;;;5074466;28;20098;-74
2022/04/11 02:28:38;;;;;;;11.93;2.42;;;;;;;;;;5074524;28;20032;-74
2022/04/11 02:31:04;;;;;;;4.93;2.28;;;;;;;;;;5074260;28;20378;-74
2022/04/11 02:33:30;;;;;;;4.85;2.13;;;;;;;;;;5074563;28;20025;-74
2022/04/11 02:35:56;;;;;;;8.00;2.33;;;;;;;;;;5074332;28;20089;-74
2022/04/11 02:38:22;;;;;;;5.72;2.10;;;;;;;;;;5074471;28;20029;-74
2022/04/11 02:40:48;;;;;;;8.60;2.50;;;;;;;;;;5074142;28;20039;-74
2022/04/11 02:43:14;;;;;;;8.10;2.42;;;;;;;;;;5074305;28;20021;-74
2022/04/11 02:45:40;;;;;;;7.43;2.67;;;;;;;;;;5074190;28;20039;-74
2022/04/11 02:48:06;;;;;;;7.35;2.55;;;;;;;;;;5074168;28;20467;-74
2022/04/11 02:50:32;;;;;;;8.52;3.05;;;;;;;;;;5073339;28;20074;-74
2022/04/11 02:52:58;;;;;;;8.88;2.28;;;;;;;;;;5074176;28;20028;-74
2022/04/11 02:55:24;;;;;;;7.88;2.63;;;;;;;;;;5074091;28;20025;-74
2022/04/11 02:57:50;;;;;;;4.72;2.30;;;;;;;;;;5074342;28;20024;-74
2022/04/11 03:00:18;;;;;;;7.00;2.70;;;;;;;;;;5074447;28;20033;-74
2022/04/11 03:02:44;;;;;;;6.05;2.70;;;;;;;;;;5074410;28;20035;-74
2022/04/11 03:05:10;;;;;;;8.30;2.78;;;;;;;;;;5074365;28;20484;-74
2022/04/11 03:07:36;;;;;;;5.50;2.75;;;;;;;;;;5073855;28;20049;-74
2022/04/11 03:10:02;;;;;;;7.47;2.72;;;;;;;;;;5073698;28;20033;-74
2022/04/11 03:12:28;;;;;;;6.95;2.80;;;;;;;;;;5073814;28;20020;-74
2022/04/11 03:14:54;;;;;;;6.03;2.85;;;;;;;;;;5057703;28;20348;-74
2022/04/11 03:17:20;;;;;;;7.05;2.97;;;;;;;;;;5035522;28;20395;-74
2022/04/11 03:19:46;;;;;;;9.25;3.25;;;;;;;;;;5059965;28;20024;-74
2022/04/11 03:22:13;;;;;;;6.20;2.65;;;;;;;;;;5073470;28;20036;-74
2022/04/11 03:24:39;;;;;;;7.63;3.17;;;;;;;;;;5073907;28;20124;-74
2022/04/11 03:27:05;;;;;;;7.13;3.00;;;;;;;;;;5073603;28;20410;-74
2022/04/11 03:29:31;;;;;;;11.10;3.88;;;;;;;;;;5073433;28;20060;-74
2022/04/11 03:31:58;;;;;;;8.25;3.03;;;;;;;;;;5073497;28;20025;-74
2022/04/11 03:34:24;;;;;;;4.82;2.60;;;;;;;;;;5073276;28;20021;-74
2022/04/11 03:36:51;;;;;;;7.78;3.20;;;;;;;;;;5073220;28;20026;-74
2022/04/11 03:39:17;;;;;;;5.32;2.55;;;;;;;;;;5073138;28;20024;-74
2022/04/11 03:41:43;;;;;;;6.53;2.47;;;;;;;;;;5073039;28;20023;-74
2022/04/11 03:44:13;;;;;;;7.60;3.03;;;;;;;;;;5073262;28;20082;-74
2022/04/11 03:46:39;;;;;;;8.05;3.15;;;;;;;;;;5073122;28;20020;-74
2022/04/11 03:49:06;;;;;;;7.63;2.95;;;;;;;;;;5073060;28;20569;-74
2022/04/11 03:51:32;;;;;;;11.10;3.47;;;;;;;;;;5073019;28;20021;-74
2022/04/11 03:53:58;;;;;;;7.05;3.25;;;;;;;;;;5073088;28;20047;-74
2022/04/11 03:56:24;;;;;;;5.07;2.75;;;;;;;;;;5073015;28;20074;-74
2022/04/11 03:58:50;;;;;;;7.53;2.88;;;;;;;;;;5072950;28;20052;-74
2022/04/11 04:01:16;;;;;;;8.32;3.13;;;;;;;;;;5072380;28;20028;-74
2022/04/11 04:03:43;;;;;;;6.07;3.00;;;;;;;;;;5072468;28;20105;-74
2022/04/11 04:06:09;;;;;;;11.15;3.08;;;;;;;;;;5072623;28;20036;-74
2022/04/11 04:08:35;;;;;;;7.45;3.00;;;;;;;;;;5072777;28;20045;-74
2022/04/11 04:11:02;;;;;;;12.18;3.42;;;;;;;;;;5072553;28;20025;-74
2022/04/11 04:13:28;;;;;;;8.93;3.30;;;;;;;;;;5068830;28;20025;-74
2022/04/11 04:15:54;;;;;;;10.10;3.10;;;;;;;;;;5052506;28;20025;-74
2022/04/11 04:18:20;;;;;;;12.27;3.42;;;;;;;;;;5052502;28;20029;-74
2022/04/11 04:20:46;;;;;;;6.03;3.20;;;;;;;;;;5066796;28;20093;-74
2022/04/11 04:23:12;;;;;;;10.63;3.53;;;;;;;;;;5072482;28;20029;-74
2022/04/11 04:25:38;;;;;;;8.02;3.20;;;;;;;;;;5072281;28;20078;-74
2022/04/11 04:28:05;;;;;;;6.78;3.20;;;;;;;;;;5072255;28;20387;-74
2022/04/11 04:30:31;;;;;;;9.43;3.88;;;;;;;;;;5072215;28;20482;-74
2022/04/11 04:33:00;;;;;;;8.38;3.78;;;;;;;;;;5072369;28;20029;-74
2022/04/11 04:35:27;;;;;;;8.93;3.50;;;;;;;;;;5072318;28;20033;-74
2022/04/11 04:37:53;;;;;;;14.60;3.78;;;;;;;;;;5072301;28;20710;-74
2022/04/11 04:40:19;;;;;;;7.47;3.80;;;;;;;;;;5072107;28;20485;-74
2022/04/11 04:42:45;;;;;;;8.55;4.13;;;;;;;;;;5072009;28;20131;-74
2022/04/11 04:45:12;;;;;;;8.50;4.03;;;;;;;;;;5054214;28;20367;-74
2022/04/11 04:47:38;;;;;;;10.18;3.88;;;;;;;;;;5072085;28;20074;-74
2022/04/11 04:50:05;;;;;;;10.57;4.20;;;;;;;;;;5071844;28;20103;-74
2022/04/11 04:52:31;;;;;;;10.30;3.80;;;;;;;;;;5071911;28;20057;-74
2022/04/11 04:54:57;;;;;;;8.98;4.35;;;;;;;;;;5072061;28;20107;-74
2022/04/11 04:57:23;;;;;;;6.65;3.95;;;;;;;;;;5072106;28;20423;-74
2022/04/11 04:59:49;;;;;;;10.45;3.97;;;;;;;;;;5053993;28;20432;-74
2022/04/11 05:02:15;;;;;;;6.90;4.07;;;;;;;;;;5072099;28;20043;-74
2022/04/11 05:04:41;;;;;;;13.10;4.63;;;;;;;;;;5053885;28;20028;-74
2022/04/11 05:07:07;;;;;;;12.07;4.03;;;;;;;;;;5071788;28;20052;-74
2022/04/11 05:09:33;;;;;;;7.72;3.92;;;;;;;;;;5071638;28;20528;-74
2022/04/11 05:11:59;;;;;;;8.60;3.65;;;;;;;;;;5071847;28;20043;-74
2022/04/11 05:14:25;;;;;;;11.25;4.60;;;;;;;;;;5063210;28;20463;-74
2022/04/11 05:16:52;;;;;;;6.72;3.88;;;;;;;;;;5055773;28;20013;-74
2022/04/11 05:19:18;;;;;;;7.47;4.43;;;;;;;;;;5058100;28;20025;-74
2022/04/11 05:21:44;;;;;;;10.35;4.13;;;;;;;;;;5075628;28;20047;-74
2022/04/11 05:24:10;;;;;;;8.63;4.53;;;;;;;;;;5076100;28;20029;-74
2022/04/11 05:26:36;;;;;;;10.63;4.82;;;;;;;;;;5075742;28;20176;-74
2022/04/11 05:29:03;;;;;;;7.68;4.70;;;;;;;;;;5075734;28;20095;-74
2022/04/11 05:31:29;;;;;;;10.25;5.00;;;;;;;;;;5075679;28;20074;-74
2022/04/11 05:33:55;;;;;;;7.93;4.78;;;;;;;;;;5075832;28;20012;-74
2022/04/11 05:36:21;;;;;;;12.32;4.82;;;;;;;;;;5057543;28;20044;-74
2022/04/11 05:38:47;;;;;;;6.63;4.40;;;;;;;;;;5075501;28;20455;-74
2022/04/11 05:41:14;;;;;;;8.35;4.45;;;;;;;;;;5071074;28;20032;-74
2022/04/11 05:43:41;;;;;;;9.60;4.70;;;;;;;;;;5055519;28;20028;-74
2022/04/11 05:46:07;;;;;;;10.82;5.15;;;;;;;;;;5037342;28;20036;-74
2022/04/11 05:48:34;;;;;;;8.57;4.75;;;;;;;;;;5055413;28;20078;-74
2022/04/11 05:51:00;;;;;;;10.07;5.28;;;;;;;;;;5055233;28;20021;-74
2022/04/11 05:53:26;;;;;;;9.80;4.80;;;;;;;;;;5055445;28;20055;-74
2022/04/11 05:55:52;;;;;;;15.25;5.80;;;;;;;;;;5055190;28;20440;-74
2022/04/11 05:58:18;;;;;;;11.40;5.53;;;;;;;;;;5055158;28;20029;-74
2022/04/11 06:00:44;;;;;;;11.75;6.35;;;;;;;;;;5055323;28;20029;-74
2022/04/11 06:03:11;;;;;;;15.88;7.82;;;;;;;;;;5055108;28;20029;-74
2022/04/11 06:05:37;;;;;;;20.25;8.90;;;;;;;;;;5055181;28;20160;-74
2022/04/11 06:08:03;;;;;;;17.55;8.63;;;;;;;;;;5054643;28;20519;-74
2022/04/11 06:10:29;;;;;;;24.50;10.70;;;;;;;;;;5055043;28;20028;-74
2022/04/11 06:12:55;;;;;;;25.00;11.13;;;;;;;;;;5054869;28;20025;-74
2022/04/11 06:15:21;;;;;;;19.98;10.52;;;;;;;;;;5054703;28;20746;-74
2022/04/11 06:17:47;;;;;;;15.50;10.05;;;;;;;;;;5053616;28;20049;-74
2022/04/11 06:20:13;;;;;;;18.48;8.18;;;;;;;;;;5064886;28;20101;-74
2022/04/11 06:22:40;;;;;;;16.38;8.10;;;;;;;;;;5074584;28;20036;-74
2022/04/11 06:25:08;;;;;;;14.70;7.15;;;;;;;;;;5073602;28;20176;-74
2022/04/11 06:27:34;;;;;;;9.38;6.03;;;;;;;;;;5074614;28;20025;-74
2022/04/11 06:30:00;;;;;;;13.38;5.80;;;;;;;;;;5056395;28;20119;-74
2022/04/11 06:32:27;;;;;;;13.82;6.68;;;;;;;;;;5074584;28;20108;-74
2022/04/11 06:34:53;;;;;;;11.52;6.35;;;;;;;;;;5074575;28;20021;-74
2022/04/11 06:37:19;;;;;;;13.68;5.80;;;;;;;;;;5074515;28;20033;-74
2022/04/11 06:39:45;;;;;;;9.07;5.90;;;;;;;;;;5074491;28;20032;-75
2022/04/11 06:42:11;;;;;;;12.93;6.85;;;;;;;;;;5062151;28;20029;-74
2022/04/11 06:44:38;;;;;;;9.68;5.65;;;;;;;;;;5054321;28;20031;-74
2022/04/11 06:47:04;;;;;;;12.52;5.47;;;;;;;;;;5053016;28;20112;-75
2022/04/11 06:49:30;;;;;;;11.90;5.43;;;;;;;;;;5054131;28;20026;-75
2022/04/11 06:51:57;;;;;;;12.73;5.32;;;;;;;;;;5054127;28;20040;-75
2022/04/11 06:54:23;;;;;;;10.55;4.68;;;;;;;;;;5054261;28;20033;-75
2022/04/11 06:56:49;;;;;;;10.48;5.25;;;;;;;;;;5054155;28;20029;-75
2022/04/11 06:59:17;;;;;;;14.50;4.80;;;;;;;;;;5052771;28;20025;-74
2022/04/11 07:01:43;;;;;;;12.38;4.43;;;;;;;;;;5054066;28;20025;-75
2022/04/11 07:04:09;;;;;;;9.05;4.40;;;;;;;;;;5053858;28;20087;-75
2022/04/11 07:06:35;;;;;;;8.38;4.22;;;;;;;;;;5053739;28;20052;-75
2022/04/11 07:09:01;;;;;;;6.22;4.28;;;;;;;;;;5054008;28;20032;-75
2022/04/11 07:11:31;;;;;;;11.50;4.47;;;;;;;;;;5053693;28;20037;-75
2022/04/11 07:13:57;;;;;;;8.90;4.25;;;;;;;;;;5053859;28;20017;-75
2022/04/11 07:16:24;;;;;;;37.83;6.25;;;;;;;;;;5053872;28;20117;-75
2022/04/11 07:18:50;;;;;;;10.90;4.35;;;;;;;;;;5053981;28;20549;-75
2022/04/11 07:21:16;;;;;;;6.78;4.07;;;;;;;;;;5072403;28;20342;-75
2022/04/11 07:23:42;;;;;;;6.93;4.35;;;;;;;;;;5073871;28;20471;-75
2022/04/11 07:26:08;;;;;;;4.93;3.83;;;;;;;;;;5073494;28;20115;-74
2022/04/11 07:28:34;;;;;;;9.07;3.47;;;;;;;;;;5073744;28;20029;-75
2022/04/11 07:31:01;;;;;;;8.82;3.88;;;;;;;;;;5073410;28;20363;-75
2022/04/11 07:33:27;;;;;;;8.25;3.58;;;;;;;;;;5074220;28;20032;-75
2022/04/11 07:35:53;;;;;;;10.40;3.90;;;;;;;;;;5074327;28;20028;-74
2022/04/11 07:38:19;;;;;;;9.48;3.80;;;;;;;;;;5056459;28;20027;-75
2022/04/11 07:40:46;;;;;;;8.27;4.05;;;;;;;;;;5074480;28;20024;-75
2022/04/11 07:43:12;;;;;;;10.00;3.90;;;;;;;;;;5073703;28;20025;-74
2022/04/11 07:45:38;;;;;;;12.98;4.85;;;;;;;;;;5073322;28;20114;-74
2022/04/11 07:48:04;;;;;;;11.13;5.20;;;;;;;;;;5073227;28;20036;-74
2022/04/11 07:50:30;;;;;;;10.85;4.28;;;;;;;;;;5072855;28;20048;-75
2022/04/11 07:52:56;;;;;;;13.77;4.68;;;;;;;;;;5072964;28;20224;-75
2022/04/11 07:55:24;;;;;;;5.85;3.90;;;;;;;;;;5073087;28;20107;-75
2022/04/11 07:57:50;;;;;;;12.23;4.15;;;;;;;;;;5073022;28;20048;-74
2022/04/11 08:00:16;;;;;;;9.68;3.90;;;;;;;;;;5072889;28;20039;-75
2022/04/11 08:02:42;;;;;;;8.15;4.00;;;;;;;;;;5072978;28;20024;-74
2022/04/11 08:05:09;;;;;;;7.60;3.72;;;;;;;;;;5054904;28;20392;-74
2022/04/11 08:07:35;;;;;;;9.13;3.80;;;;;;;;;;5072642;28;20075;-74
2022/04/11 08:10:05;;;;;;;9.70;4.10;;;;;;;;;;5072604;28;20029;-75
2022/04/11 08:12:32;;;;;;;7.80;4.00;;;;;;;;;;5072801;28;20370;-75
2022/04/11 08:14:58;;;;;;;6.15;3.78;;;;;;;;;;5056330;28;20029;-75
2022/04/11 08:17:24;;;;;;;10.65;3.63;;;;;;;;;;5034901;28;20416;-75
2022/04/11 08:19:50;;;;;;;11.10;3.38;;;;;;;;;;5059427;28;20102;-75
2022/04/11 08:22:16;;;;;;;8.60;3.42;;;;;;;;;;5072628;28;20455;-75
2022/04/11 08:24:42;;;;;;;7.10;3.83;;;;;;;;;;5054737;28;20032;-75
2022/04/11 08:27:08;;;;;;;8.10;3.20;;;;;;;;;;5072204;28;20032;-75
2022/04/11 08:29:34;;;;;;;6.82;2.97;;;;;;;;;;5072569;28;20416;-75
2022/04/11 08:32:00;;;;;;;9.10;3.42;;;;;;;;;;5072373;28;20028;-75
2022/04/11 08:34:26;;;;;;;9.93;3.45;;;;;;;;;;5072312;28;20025;-74
2022/04/11 08:36:55;;;;;;;8.27;3.10;;;;;;;;;;5072395;28;20478;-75
2022/04/11 08:39:21;;;;;;;8.48;2.97;;;;;;;;;;5072381;28;20032;-75
2022/04/11 08:41:47;;;;;;;9.15;3.10;;;;;;;;;;5072061;28;20036;-74
2022/04/11 08:44:13;;;;;;;6.35;3.65;;;;;;;;;;5072319;28;20429;-74
2022/04/11 08:46:40;;;;;;;7.00;3.10;;;;;;;;;;5072337;28;20028;-74
2022/04/11 08:49:07;;;;;;;7.25;3.30;;;;;;;;;;5071533;28;20037;-74
2022/04/11 08:51:34;;;;;;;6.50;3.03;;;;;;;;;;5072138;28;20032;-74
2022/04/11 08:54:01;;;;;;;8.85;3.28;;;;;;;;;;5054052;28;20024;-74
2022/04/11 08:56:28;;;;;;;8.73;3.00;;;;;;;;;;5071989;28;20417;-74
2022/04/11 08:58:54;;;;;;;10.32;4.10;;;;;;;;;;5071954;28;20012;-74
2022/04/11 09:01:20;;;;;;;7.78;3.40;;;;;;;;;;5072207;28;20128;-74
2022/04/11 09:03:47;;;;;;;7.65;3.40;;;;;;;;;;5054051;28;20052;-74
2022/04/11 09:06:17;;;;;;;10.73;3.28;;;;;;;;;;5071743;28;20035;-74
2022/04/11 09:08:50;;;;;;;8.50;2.92;;;;;;;;;;5071922;28;20036;-74
2022/04/11 09:11:37;;;;;;;9.73;4.28;;;;;;;;;;5053819;28;20123;-75
2022/04/11 09:14:06;;;;;;;8.82;3.63;;;;;;;;;;5063017;28;20021;-75
2022/04/11 09:16:45;;;;;;;9.32;4.32;;;;;;;;;;5051947;28;20025;-74
2022/04/11 09:19:20;;;;;;;9.88;4.45;;;;;;;;;;5051879;28;20033;-74
2022/04/11 09:21:46;;;;;;;13.48;5.97;;;;;;;;;;5051793;28;20086;-75
2022/04/11 09:24:17;;;;;;;14.85;5.97;;;;;;;;;;5051797;28;20386;-74
2022/04/11 09:26:43;;;;;;;13.68;5.78;;;;;;;;;;5034057;28;20025;-74
2022/04/11 09:29:09;;;;;;;9.05;5.80;;;;;;;;;;5051843;28;20021;-74
2022/04/11 09:31:35;;;;;;;9.77;6.15;;;;;;;;;;5047453;28;20459;-74
2022/04/11 09:34:14;;;;;;;9.07;4.97;;;;;;;;;;5071877;28;20021;-74
2022/04/11 09:37:01;;;;;;;7.47;4.70;;;;;;;;;;5071771;28;20017;-74
2022/04/11 09:39:31;;;;;;;9.55;5.13;;;;;;;;;;5071876;28;20406;-74
2022/04/11 09:41:57;;;;;;;6.90;4.40;;;;;;;;;;5061197;28;20542;-74
2022/04/11 09:44:27;;;;;;;9.13;4.40;;;;;;;;;;5050333;28;20029;-74
2022/04/11 09:46:54;;;;;;;8.43;4.53;;;;;;;;;;5051697;28;20028;-74
2022/04/11 09:49:20;;;;;;;5.22;3.83;;;;;;;;;;5051564;28;20062;-74
2022/04/11 09:52:05;;;;;;;9.32;4.60;;;;;;;;;;5051513;28;20033;-74
2022/04/11 09:54:32;;;;;;;9.68;4.63;;;;;;;;;;5051658;28;20083;-74
2022/04/11 09:56:59;;;;;;;8.82;4.68;;;;;;;;;;5050008;28;20025;-74
2022/04/11 09:59:25;;;;;;;11.15;4.85;;;;;;;;;;5053153;28;20104;-74
2022/04/11 10:01:53;;;;;;;5.80;3.88;;;;;;;;;;5055456;28;20376;-74
2022/04/11 10:04:19;;;;;;;6.78;3.97;;;;;;;;;;5055267;28;20045;-74
2022/04/11 10:06:45;;;;;;;6.32;3.60;;;;;;;;;;5055035;28;20166;-74
2022/04/11 10:09:13;;;;;;;6.60;3.38;;;;;;;;;;5055258;28;20485;-74
2022/04/11 10:11:40;;;;;;;8.65;3.90;;;;;;;;;;5054850;28;20119;-74
2022/04/11 10:14:06;;;;;;;15.82;4.60;;;;;;;;;;5055095;28;20037;-74
2022/04/11 10:16:32;;;;;;;6.78;3.30;;;;;;;;;;5055178;28;20029;-74
2022/04/11 10:19:02;;;;;;;10.57;4.22;;;;;;;;;;5055014;28;20025;-74
2022/04/11 10:21:29;;;;;;;8.13;3.42;;;;;;;;;;5054759;28;20041;-74
2022/04/11 10:24:06;;;;;;;10.70;3.92;;;;;;;;;;5055083;28;20032;-74
2022/04/11 10:26:53;;;;;;;6.90;3.40;;;;;;;;;;5054823;28;20064;-74
2022/04/11 10:29:35;;;;;;;6.07;3.00;;;;;;;;;;5054705;28;20486;-74
2022/04/11 10:32:07;;;;;;;6.40;3.28;;;;;;;;;;5071852;28;20082;-74
2022/04/11 10:34:46;;;;;;;5.78;2.58;;;;;;;;;;5074698;28;20040;-74
2022/04/11 10:37:12;;;;;;;6.28;2.92;;;;;;;;;;5074441;28;20016;-74
2022/04/11 10:39:39;;;;;;;8.10;2.75;;;;;;;;;;5074672;28;20097;-74
2022/04/11 10:42:14;;;;;;;5.00;2.70;;;;;;;;;;5045451;28;20070;-75
2022/04/11 10:44:46;;;;;;;8.73;2.80;;;;;;;;;;5054539;28;20032;-73
2022/04/11 10:47:12;;;;;;;10.02;2.83;;;;;;;;;;5053379;28;20078;-75
2022/04/11 10:49:50;;;;;;;6.40;2.70;;;;;;;;;;5054222;28;20410;-73
2022/04/11 10:52:29;;;;;;;5.75;2.60;;;;;;;;;;5054468;28;20104;-73
2022/04/11 10:54:55;;;;;;;6.60;2.53;;;;;;;;;;5054353;28;20025;-74
2022/04/11 10:57:39;;;;;;;5.82;2.50;;;;;;;;;;5054079;28;20108;-73
2022/04/11 11:00:08;;;;;;;5.30;2.40;;;;;;;;;;5054409;28;20115;-74
2022/04/11 11:02:46;;;;;;;5.65;2.50;;;;;;;;;;5054344;28;20027;-72
2022/04/11 11:05:22;;;;;;;7.15;2.50;;;;;;;;;;5054032;28;20029;-73
2022/04/11 11:07:48;;;;;;;5.75;2.30;;;;;;;;;;5054071;28;20060;-74
2022/04/11 11:10:27;;;;;;;7.68;2.80;;;;;;;;;;5053806;28;20025;-72
2022/04/11 11:12:53;;;;;;;8.15;2.63;;;;;;;;;;5053835;28;20045;-74
2022/04/11 11:15:27;;;;;;;8.65;2.33;;;;;;;;;;5073103;28;20032;-73
2022/04/11 11:18:00;;;;;;;7.07;2.30;;;;;;;;;;5073972;28;20356;-72
2022/04/11 11:20:32;;;;;;;6.35;2.50;;;;;;;;;;5073876;28;20187;-72
2022/04/11 11:23:25;;;;;;;7.55;3.13;;;;;;;;;;5055904;28;20036;-72
2022/04/11 11:25:52;;;;;;;6.88;2.85;;;;;;;;;;5070836;28;20044;-74
2022/04/11 11:28:18;;;;;;;10.98;2.88;;;;;;;;;;5073511;28;20021;-73
2022/04/11 11:30:45;;;;;;;7.18;3.10;;;;;;;;;;5073375;28;20104;-75
2022/04/11 11:33:15;;;;;;;5.97;2.60;;;;;;;;;;5073455;28;20047;-72
2022/04/11 11:35:49;;;;;;;7.03;3.20;;;;;;;;;;5073457;28;20013;-72
2022/04/11 11:38:15;;;;;;;6.80;2.53;;;;;;;;;;5073516;28;20106;-72
2022/04/11 11:40:51;;;;;;;6.22;2.60;;;;;;;;;;5073301;28;20483;-72
2022/04/11 11:43:18;;;;;;;6.97;3.00;;;;;;;;;;5053572;28;20025;-74
2022/04/11 11:45:44;;;;;;;6.00;2.80;;;;;;;;;;5035106;28;20025;-72
2022/04/11 11:48:20;;;;;;;9.25;2.97;;;;;;;;;;5053107;28;20029;-72
2022/04/11 11:50:47;;;;;;;7.28;3.10;;;;;;;;;;5053022;28;20052;-72
2022/04/11 11:53:13;;;;;;;6.82;3.00;;;;;;;;;;5053248;28;20071;-72
2022/04/11 11:55:52;;;;;;;6.55;3.00;;;;;;;;;;5053200;28;20017;-74
2022/04/11 11:58:18;;;;;;;6.05;2.58;;;;;;;;;;5053134;28;20052;-73
2022/04/11 12:00:50;;;;;;;10.02;2.83;;;;;;;;;;5052989;28;20025;-74
2022/04/11 12:06:03;;;;;;;7.05;2.97;;;;;;;;;;5053239;28;20044;-73
2022/04/11 12:08:32;;;;;;;6.97;2.17;;;;;;;;;;5034958;28;20041;-74
2022/04/11 12:11:02;;;;;;;8.90;2.95;;;;;;;;;;5052517;28;20786;-75
2022/04/11 12:13:32;;;;;;;6.93;2.70;;;;;;;;;;5034987;28;20024;-75
2022/04/11 12:16:11;;;;;;;7.05;2.53;;;;;;;;;;5052570;28;20021;-76
2022/04/11 12:18:47;;;;;;;5.97;2.50;;;;;;;;;;5052351;28;20037;-76
2022/04/11 12:21:13;;;;;;;5.75;2.40;;;;;;;;;;5070377;28;20024;-76
2022/04/11 12:23:47;;;;;;;4.95;2.90;;;;;;;;;;5053277;28;20428;-76
2022/04/11 12:26:23;;;;;;;10.45;2.65;;;;;;;;;;5072243;28;20039;-76
2022/04/11 12:28:49;;;;;;;8.80;3.15;;;;;;;;;;5072334;28;20082;-74
2022/04/11 12:31:18;;;;;;;8.55;3.47;;;;;;;;;;5071956;28;20024;-75
2022/04/11 12:33:46;;;;;;;8.38;3.50;;;;;;;;;;5072492;28;20070;-76
2022/04/11 12:36:26;;;;;;;7.43;3.40;;;;;;;;;;5072545;28;20027;-76
2022/04/11 12:38:54;;;;;;;6.88;3.13;;;;;;;;;;5072470;28;20021;-76
2022/04/11 12:41:29;;;;;;;5.32;3.30;;;;;;;;;;5067342;28;20104;-75
2022/04/11 12:44:07;;;;;;;9.77;3.40;;;;;;;;;;5052607;28;20127;-75
2022/04/11 12:46:34;;;;;;;13.43;3.78;;;;;;;;;;5052515;28;20021;-75
2022/04/11 12:49:01;;;;;;;7.32;2.88;;;;;;;;;;5052421;28;20047;-75
2022/04/11 12:51:28;;;;;;;6.57;3.17;;;;;;;;;;5034311;28;20425;-75
2022/04/11 12:54:05;;;;;;;12.07;3.10;;;;;;;;;;5052178;28;20021;-75
2022/04/11 12:56:40;;;;;;;6.70;3.10;;;;;;;;;;5052330;28;20025;-75
2022/04/11 12:59:06;;;;;;;6.60;3.17;;;;;;;;;;5052341;28;20037;-76
2022/04/11 13:01:49;;;;;;;5.50;3.15;;;;;;;;;;5052131;28;20025;-75
2022/04/11 13:04:15;;;;;;;5.35;2.80;;;;;;;;;;5051752;28;20025;-75
2022/04/11 13:06:41;;;;;;;7.07;3.10;;;;;;;;;;5051922;28;20033;-75
2022/04/11 13:09:07;;;;;;;9.50;3.50;;;;;;;;;;5051875;28;20079;-75
2022/04/11 13:11:40;;;;;;;5.40;3.20;;;;;;;;;;5051894;28;20025;-76
2022/04/11 13:14:06;;;;;;;7.55;3.00;;;;;;;;;;5060730;28;20031;-75
2022/04/11 13:19:17;;;;;;;7.30;2.95;;;;;;;;;;5071622;28;20082;-75
2022/04/11 13:21:43;;;;;;;8.63;3.28;;;;;;;;;;5071546;28;20044;-76
2022/04/11 13:24:09;;;;;;;8.13;3.35;;;;;;;;;;5071633;28;20033;-75
2022/04/11 13:26:35;;;;;;;8.13;3.15;;;;;;;;;;5071279;28;20032;-75
2022/04/11 13:29:01;;;;;;;6.40;2.90;;;;;;;;;;5071371;28;20031;-75
2022/04/11 13:31:27;;;;;;;8.50;3.60;;;;;;;;;;5071217;28;20040;-75
2022/04/11 13:33:53;;;;;;;7.70;3.38;;;;;;;;;;5071939;28;20055;-75
2022/04/11 13:36:19;;;;;;;7.53;3.30;;;;;;;;;;5075347;28;20024;-76
2022/04/11 13:38:45;;;;;;;9.15;3.60;;;;;;;;;;5075425;28;20368;-75
2022/04/11 13:41:12;;;;;;;6.95;2.92;;;;;;;;;;5071278;28;20463;-75
2022/04/11 13:43:38;;;;;;;6.38;2.58;;;;;;;;;;5055352;28;20029;-76
2022/04/11 13:46:04;;;;;;;7.40;2.70;;;;;;;;;;5055273;28;20090;-75
2022/04/11 13:48:30;;;;;;;6.30;3.00;;;;;;;;;;5055389;28;20028;-75
2022/04/11 13:50:56;;;;;;;7.18;2.95;;;;;;;;;;5055074;28;20035;-76
2022/04/11 13:53:24;;;;;;;8.95;2.85;;;;;;;;;;5055283;28;20065;-76
2022/04/11 13:55:50;;;;;;;7.85;3.17;;;;;;;;;;5055006;28;20021;-75
2022/04/11 13:58:16;;;;;;;4.65;2.92;;;;;;;;;;5055235;28;20033;-76
2022/04/11 14:00:42;;;;;;;7.35;2.95;;;;;;;;;;5054989;28;20032;-75
2022/04/11 14:03:09;;;;;;;6.72;3.13;;;;;;;;;;5055058;28;20025;-76
2022/04/11 14:05:35;;;;;;;10.02;3.22;;;;;;;;;;5055033;28;20087;-76
2022/04/11 14:08:01;;;;;;;8.70;2.80;;;;;;;;;;5036539;28;20087;-75
2022/04/11 14:10:27;;;;;;;8.38;2.83;;;;;;;;;;5036739;28;20041;-75
2022/04/11 14:12:53;;;;;;;7.25;2.70;;;;;;;;;;5054752;28;20066;-75
2022/04/11 14:15:19;;;;;;;3.85;2.63;;;;;;;;;;5073687;28;20024;-75
2022/04/11 14:17:45;;;;;;;5.55;2.80;;;;;;;;;;5074886;28;20485;-75
2022/04/11 14:20:13;;;;;;;4.78;2.90;;;;;;;;;;5074606;28;20146;-76
2022/04/11 14:22:39;;;;;;;4.88;2.60;;;;;;;;;;5074480;28;20056;-75
2022/04/11 14:25:06;;;;;;;7.45;3.45;;;;;;;;;;5056402;28;20086;-76
2022/04/11 14:27:32;;;;;;;5.22;3.00;;;;;;;;;;5074475;28;20537;-76
2022/04/11 14:29:58;;;;;;;7.72;2.95;;;;;;;;;;5074247;28;20071;-75
2022/04/11 14:32:24;;;;;;;5.38;2.83;;;;;;;;;;5074582;28;20348;-75
2022/04/11 14:34:50;;;;;;;8.25;2.83;;;;;;;;;;5074371;28;20470;-76
2022/04/11 14:37:16;;;;;;;8.60;3.10;;;;;;;;;;5074342;28;20028;-76
2022/04/11 14:39:42;;;;;;;9.45;3.63;;;;;;;;;;5074390;28;20048;-76
2022/04/11 14:42:09;;;;;;;6.25;3.70;;;;;;;;;;5073980;28;20029;-76
2022/04/11 14:44:35;;;;;;;9.18;3.47;;;;;;;;;;5074260;28;20107;-76
2022/04/11 14:47:01;;;;;;;8.63;3.10;;;;;;;;;;5073237;28;20035;-76
2022/04/11 14:49:27;;;;;;;8.38;3.05;;;;;;;;;;5074086;28;20433;-76